sensor_id;sensor_type;location;lat;lon;timestamp;temperature;humidity
25170;DHT22;13129;48.012;10.352;2022-07-24T03:32:24;15.50;99.90
25170;DHT22;13129;48.012;10.352;2022-07-24T03:34:50;15.50;99.90
25170;DHT22;13129;48.012;10.352;2022-07-24T03:37:16;15.40;99.90
25170;DHT22;13129;48.012;10.352;2022-07-24T03:39:42;15.30;99.90
25170;DHT22;13129;48.012;10.352;2022-07-24T03:42:07;15.30;99.90
25170;DHT22;13129;48.012;10.352;2022-07-24T03:44:33;15.20;99.90
25170;DHT22;13129;48.012;10.352;2022-07-24T03:46:58;15.10;99.90
25170;DHT22;13129;48.012;10.352;2022-07-24T03:49:24;15.10;99.90
25170;DHT22;13129;48.012;10.352;2022-07-24T03:51:50;15.10;99.90
25170;DHT22;13129;48.012;10.352;2022-07-24T03:54:15;15.10;99.90
25170;DHT22;13129;48.012;10.352;2022-07-24T03:56:42;15.10;99.90
25170;DHT22;13129;48.012;10.352;2022-07-24T03:59:07;15.10;99.90
25170;DHT22;13129;48.012;10.352;2022-07-24T04:01:33;15.10;99.90
25170;DHT22;13129;48.012;10.352;2022-07-24T04:03:59;15.10;99.90
25170;DHT22;13129;48.012;10.352;2022-07-24T04:06:30;15.10;99.90
25170;DHT22;13129;48.012;10.352;2022-07-24T04:08:57;15.10;99.90
25170;DHT22;13129;48.012;10.352;2022-07-24T04:11:23;15.10;99.90
25170;DHT22;13129;48.012;10.352;2022-07-24T04:13:48;15.20;99.90
25170;DHT22;13129;48.012;10.352;2022-07-24T04:16:14;15.20;99.90
25170;DHT22;13129;48.012;10.352;2022-07-24T04:18:40;15.30;99.90
25170;DHT22;13129;48.012;10.352;2022-07-24T04:21:06;15.30;99.90
25170;DHT22;13129;48.012;10.352;2022-07-24T04:23:31;15.30;99.90
25170;DHT22;13129;48.012;10.352;2022-07-24T04:25:57;15.30;99.90
25170;DHT22;13129;48.012;10.352;2022-07-24T04:28:23;15.40;99.90
25170;DHT22;13129;48.012;10.352;2022-07-24T04:30:48;15.50;99.90
25170;DHT22;13129;48.012;10.352;2022-07-24T04:33:14;15.60;99.90
25170;DHT22;13129;48.012;10.352;2022-07-24T04:35:39;15.60;99.90
25170;DHT22;13129;48.012;10.352;2022-07-24T04:38:05;15.70;99.90
25170;DHT22;13129;48.012;10.352;2022-07-24T04:40:31;15.70;99.90
25170;DHT22;13129;48.012;10.352;2022-07-24T04:42:57;15.70;99.90
25170;DHT22;13129;48.012;10.352;2022-07-24T04:45:22;15.70;99.90
25170;DHT22;13129;48.012;10.352;2022-07-24T04:47:48;15.80;99.90
25170;DHT22;13129;48.012;10.352;2022-07-24T04:50:14;16.00;99.90
25170;DHT22;13129;48.012;10.352;2022-07-24T04:52:40;16.10;99.90
25170;DHT22;13129;48.012;10.352;2022-07-24T04:55:06;16.30;99.90
25170;DHT22;13129;48.012;10.352;2022-07-24T04:57:31;16.50;99.90
25170;DHT22;13129;48.012;10.352;2022-07-24T04:59:57;16.70;99.90
25170;DHT22;13129;48.012;10.352;2022-07-24T05:02:23;16.90;99.90
25170;DHT22;13129;48.012;10.352;2022-07-24T05:04:48;17.10;99.90
25170;DHT22;13129;48.012;10.352;2022-07-24T05:07:14;17.30;99.90
25170;DHT22;13129;48.012;10.352;2022-07-24T05:09:39;17.40;99.90
25170;DHT22;13129;48.012;10.352;2022-07-24T05:12:05;17.70;99.90
25170;DHT22;13129;48.012;10.352;2022-07-24T05:14:31;17.80;99.90
25170;DHT22;13129;48.012;10.352;2022-07-24T05:16:56;18.00;99.90
25170;DHT22;13129;48.012;10.352;2022-07-24T05:19:22;18.20;99.90
25170;DHT22;13129;48.012;10.352;2022-07-24T05:21:48;18.40;99.90
25170;DHT22;13129;48.012;10.352;2022-07-24T05:24:13;18.60;99.90
25170;DHT22;13129;48.012;10.352;2022-07-24T05:26:39;19.00;99.90
25170;DHT22;13129;48.012;10.352;2022-07-24T05:29:05;19.50;99.90
25170;DHT22;13129;48.012;10.352;2022-07-24T05:31:32;20.50;99.90
25170;DHT22;13129;48.012;10.352;2022-07-24T05:33:58;22.00;99.90
25170;DHT22;13129;48.012;10.352;2022-07-24T05:36:24;23.50;99.90
25170;DHT22;13129;48.012;10.352;2022-07-24T05:38:50;24.80;99.90
25170;DHT22;13129;48.012;10.352;2022-07-24T05:41:16;26.00;99.90
25170;DHT22;13129;48.012;10.352;2022-07-24T05:43:41;26.90;99.90
25170;DHT22;13129;48.012;10.352;2022-07-24T05:46:07;27.80;99.90
25170;DHT22;13129;48.012;10.352;2022-07-24T05:48:33;28.70;99.90
25170;DHT22;13129;48.012;10.352;2022-07-24T05:50:59;29.20;99.90
25170;DHT22;13129;48.012;10.352;2022-07-24T05:53:24;29.50;99.90
25170;DHT22;13129;48.012;10.352;2022-07-24T05:55:51;29.80;99.90
25170;DHT22;13129;48.012;10.352;2022-07-24T05:58:17;30.20;99.90
25170;DHT22;13129;48.012;10.352;2022-07-24T06:00:43;30.60;99.90
25170;DHT22;13129;48.012;10.352;2022-07-24T06:03:09;30.90;99.90
25170;DHT22;13129;48.012;10.352;2022-07-24T06:05:35;31.20;98.40
25170;DHT22;13129;48.012;10.352;2022-07-24T06:08:01;31.20;96.00
25170;DHT22;13129;48.012;10.352;2022-07-24T06:10:26;31.50;94.50
25170;DHT22;13129;48.012;10.352;2022-07-24T06:12:53;31.40;93.50
25170;DHT22;13129;48.012;10.352;2022-07-24T06:15:18;31.70;93.00
25170;DHT22;13129;48.012;10.352;2022-07-24T06:17:44;31.90;92.00
25170;DHT22;13129;48.012;10.352;2022-07-24T06:20:11;32.00;91.50
25170;DHT22;13129;48.012;10.352;2022-07-24T06:22:41;32.00;90.40
25170;DHT22;13129;48.012;10.352;2022-07-24T06:25:07;32.50;90.20
25170;DHT22;13129;48.012;10.352;2022-07-24T06:27:33;32.70;88.20
25170;DHT22;13129;48.012;10.352;2022-07-24T06:29:59;32.90;87.20
25170;DHT22;13129;48.012;10.352;2022-07-24T06:32:25;33.40;85.60
25170;DHT22;13129;48.012;10.352;2022-07-24T06:34:50;33.40;82.50
25170;DHT22;13129;48.012;10.352;2022-07-24T06:37:16;33.40;82.40
25170;DHT22;13129;48.012;10.352;2022-07-24T06:39:42;34.00;81.40
25170;DHT22;13129;48.012;10.352;2022-07-24T06:42:07;34.30;80.00
25170;DHT22;13129;48.012;10.352;2022-07-24T06:44:33;34.70;78.30
25170;DHT22;13129;48.012;10.352;2022-07-24T06:47:01;34.90;75.90
25170;DHT22;13129;48.012;10.352;2022-07-24T06:49:27;35.10;74.70
25170;DHT22;13129;48.012;10.352;2022-07-24T06:51:53;35.10;73.30
25170;DHT22;13129;48.012;10.352;2022-07-24T06:54:18;35.60;72.90
25170;DHT22;13129;48.012;10.352;2022-07-24T06:56:44;35.80;73.20
25170;DHT22;13129;48.012;10.352;2022-07-24T06:59:10;36.00;71.50
25170;DHT22;13129;48.012;10.352;2022-07-24T07:01:35;36.30;71.00
25170;DHT22;13129;48.012;10.352;2022-07-24T07:04:01;36.50;69.10
25170;DHT22;13129;48.012;10.352;2022-07-24T07:06:27;36.70;68.10
25170;DHT22;13129;48.012;10.352;2022-07-24T07:08:52;36.80;67.40
25170;DHT22;13129;48.012;10.352;2022-07-24T07:11:18;37.30;66.70
25170;DHT22;13129;48.012;10.352;2022-07-24T07:13:44;37.70;65.30
25170;DHT22;13129;48.012;10.352;2022-07-24T07:16:09;37.90;63.70
25170;DHT22;13129;48.012;10.352;2022-07-24T07:18:35;38.00;62.20
25170;DHT22;13129;48.012;10.352;2022-07-24T07:21:02;38.10;61.80
25170;DHT22;13129;48.012;10.352;2022-07-24T07:23:28;38.10;61.30
25170;DHT22;13129;48.012;10.352;2022-07-24T07:25:53;38.30;60.80
25170;DHT22;13129;48.012;10.352;2022-07-24T07:28:20;38.40;60.40
25170;DHT22;13129;48.012;10.352;2022-07-24T07:30:46;38.70;60.40
25170;DHT22;13129;48.012;10.352;2022-07-24T07:33:11;38.80;59.10
25170;DHT22;13129;48.012;10.352;2022-07-24T07:35:37;38.50;58.90
25170;DHT22;13129;48.012;10.352;2022-07-24T07:38:03;38.50;58.50
25170;DHT22;13129;48.012;10.352;2022-07-24T07:40:28;38.50;58.40
25170;DHT22;13129;48.012;10.352;2022-07-24T07:42:54;38.40;59.00
25170;DHT22;13129;48.012;10.352;2022-07-24T07:45:19;38.70;58.70
25170;DHT22;13129;48.012;10.352;2022-07-24T07:47:45;39.50;57.70
25170;DHT22;13129;48.012;10.352;2022-07-24T07:50:11;40.20;56.80
25170;DHT22;13129;48.012;10.352;2022-07-24T07:52:37;39.90;55.30
25170;DHT22;13129;48.012;10.352;2022-07-24T07:55:04;40.00;56.10
25170;DHT22;13129;48.012;10.352;2022-07-24T07:57:30;40.20;55.80
25170;DHT22;13129;48.012;10.352;2022-07-24T07:59:55;39.90;55.60
25170;DHT22;13129;48.012;10.352;2022-07-24T08:02:21;39.90;55.70
25170;DHT22;13129;48.012;10.352;2022-07-24T08:04:47;39.80;55.20
25170;DHT22;13129;48.012;10.352;2022-07-24T08:07:12;40.20;54.80
25170;DHT22;13129;48.012;10.352;2022-07-24T08:09:38;39.70;54.90
25170;DHT22;13129;48.012;10.352;2022-07-24T08:12:04;39.70;54.80
25170;DHT22;13129;48.012;10.352;2022-07-24T08:14:30;40.20;55.00
25170;DHT22;13129;48.012;10.352;2022-07-24T08:16:56;40.40;54.10
25170;DHT22;13129;48.012;10.352;2022-07-24T08:19:21;40.80;53.40
25170;DHT22;13129;48.012;10.352;2022-07-24T08:21:47;41.50;52.10
25170;DHT22;13129;48.012;10.352;2022-07-24T08:24:14;42.20;51.50
25170;DHT22;13129;48.012;10.352;2022-07-24T08:26:48;42.60;50.70
25170;DHT22;13129;48.012;10.352;2022-07-24T08:29:14;42.70;48.60
25170;DHT22;13129;48.012;10.352;2022-07-24T08:31:40;43.10;48.80
25170;DHT22;13129;48.012;10.352;2022-07-24T08:34:06;42.80;48.90
25170;DHT22;13129;48.012;10.352;2022-07-24T08:36:32;42.50;48.40
25170;DHT22;13129;48.012;10.352;2022-07-24T08:38:59;42.60;48.10
25170;DHT22;13129;48.012;10.352;2022-07-24T08:41:30;42.80;47.80
25170;DHT22;13129;48.012;10.352;2022-07-24T08:43:59;42.80;48.60
25170;DHT22;13129;48.012;10.352;2022-07-24T08:46:26;43.40;46.80
25170;DHT22;13129;48.012;10.352;2022-07-24T08:48:53;44.00;45.10
25170;DHT22;13129;48.012;10.352;2022-07-24T08:51:20;43.30;45.10
25170;DHT22;13129;48.012;10.352;2022-07-24T08:53:47;43.30;45.00
25170;DHT22;13129;48.012;10.352;2022-07-24T08:56:16;43.10;46.60
25170;DHT22;13129;48.012;10.352;2022-07-24T08:58:42;43.50;45.10
25170;DHT22;13129;48.012;10.352;2022-07-24T09:01:08;43.30;45.20
25170;DHT22;13129;48.012;10.352;2022-07-24T09:03:41;43.00;45.60
25170;DHT22;13129;48.012;10.352;2022-07-24T09:06:09;43.60;44.70
25170;DHT22;13129;48.012;10.352;2022-07-24T09:08:36;43.40;45.30
25170;DHT22;13129;48.012;10.352;2022-07-24T09:11:03;43.00;45.60
25170;DHT22;13129;48.012;10.352;2022-07-24T09:13:32;43.30;46.10
25170;DHT22;13129;48.012;10.352;2022-07-24T09:16:21;43.70;44.40
25170;DHT22;13129;48.012;10.352;2022-07-24T09:18:48;42.90;45.40
25170;DHT22;13129;48.012;10.352;2022-07-24T09:21:15;43.20;45.00
25170;DHT22;13129;48.012;10.352;2022-07-24T09:23:42;43.30;45.40
25170;DHT22;13129;48.012;10.352;2022-07-24T09:26:08;43.40;45.60
25170;DHT22;13129;48.012;10.352;2022-07-24T09:28:51;43.60;45.40
25170;DHT22;13129;48.012;10.352;2022-07-24T09:31:17;43.50;43.30
25170;DHT22;13129;48.012;10.352;2022-07-24T09:33:43;43.20;45.10
25170;DHT22;13129;48.012;10.352;2022-07-24T09:36:17;44.00;43.30
25170;DHT22;13129;48.012;10.352;2022-07-24T09:38:48;43.50;42.10
25170;DHT22;13129;48.012;10.352;2022-07-24T09:41:20;43.00;42.80
25170;DHT22;13129;48.012;10.352;2022-07-24T09:43:56;43.40;44.60
25170;DHT22;13129;48.012;10.352;2022-07-24T09:46:24;42.00;44.70
25170;DHT22;13129;48.012;10.352;2022-07-24T09:48:54;39.90;47.50
25170;DHT22;13129;48.012;10.352;2022-07-24T09:51:21;38.70;50.90
25170;DHT22;13129;48.012;10.352;2022-07-24T09:53:58;38.70;50.30
25170;DHT22;13129;48.012;10.352;2022-07-24T09:56:24;40.10;49.70
25170;DHT22;13129;48.012;10.352;2022-07-24T09:58:55;40.60;48.30
25170;DHT22;13129;48.012;10.352;2022-07-24T10:01:23;40.80;47.90
25170;DHT22;13129;48.012;10.352;2022-07-24T10:03:50;41.20;48.50
25170;DHT22;13129;48.012;10.352;2022-07-24T10:06:19;41.60;47.80
25170;DHT22;13129;48.012;10.352;2022-07-24T10:08:47;41.60;47.30
25170;DHT22;13129;48.012;10.352;2022-07-24T10:11:14;42.20;47.40
25170;DHT22;13129;48.012;10.352;2022-07-24T10:13:40;42.40;45.60
25170;DHT22;13129;48.012;10.352;2022-07-24T10:16:19;42.90;46.00
25170;DHT22;13129;48.012;10.352;2022-07-24T10:18:56;42.90;46.60
25170;DHT22;13129;48.012;10.352;2022-07-24T10:21:31;43.10;46.40
25170;DHT22;13129;48.012;10.352;2022-07-24T10:28:57;41.50;44.60
25170;DHT22;13129;48.012;10.352;2022-07-24T10:31:25;40.70;47.00
25170;DHT22;13129;48.012;10.352;2022-07-24T10:33:55;40.00;49.40
25170;DHT22;13129;48.012;10.352;2022-07-24T10:36:30;39.20;50.40
25170;DHT22;13129;48.012;10.352;2022-07-24T10:39:28;38.10;51.70
25170;DHT22;13129;48.012;10.352;2022-07-24T10:42:05;37.10;53.00
25170;DHT22;13129;48.012;10.352;2022-07-24T10:44:31;36.00;54.90
25170;DHT22;13129;48.012;10.352;2022-07-24T10:53:45;34.30;59.80
25170;DHT22;13129;48.012;10.352;2022-07-24T11:01:41;33.00;59.90
25170;DHT22;13129;48.012;10.352;2022-07-24T11:09:18;32.50;59.90
25170;DHT22;13129;48.012;10.352;2022-07-24T11:14:18;32.50;58.90
25170;DHT22;13129;48.012;10.352;2022-07-24T11:16:43;32.40;59.80
25170;DHT22;13129;48.012;10.352;2022-07-24T11:21:37;32.40;59.30
25170;DHT22;13129;48.012;10.352;2022-07-24T11:26:52;32.50;62.70
25170;DHT22;13129;48.012;10.352;2022-07-24T11:29:37;32.60;60.60
25170;DHT22;13129;48.012;10.352;2022-07-24T11:32:12;32.70;59.90
25170;DHT22;13129;48.012;10.352;2022-07-24T11:34:43;31.70;61.20
25170;DHT22;13129;48.012;10.352;2022-07-24T11:37:09;31.10;61.80
25170;DHT22;13129;48.012;10.352;2022-07-24T11:39:37;30.70;62.50
25170;DHT22;13129;48.012;10.352;2022-07-24T11:42:10;30.70;62.40
25170;DHT22;13129;48.012;10.352;2022-07-24T11:44:39;30.40;60.30
25170;DHT22;13129;48.012;10.352;2022-07-24T11:47:14;30.70;61.70
25170;DHT22;13129;48.012;10.352;2022-07-24T11:49:48;30.40;59.90
25170;DHT22;13129;48.012;10.352;2022-07-24T11:52:16;30.20;61.60
25170;DHT22;13129;48.012;10.352;2022-07-24T11:54:42;30.50;63.50
25170;DHT22;13129;48.012;10.352;2022-07-24T11:57:22;30.70;64.70
25170;DHT22;13129;48.012;10.352;2022-07-24T11:59:49;30.90;65.60
25170;DHT22;13129;48.012;10.352;2022-07-24T12:02:15;30.90;66.30
25170;DHT22;13129;48.012;10.352;2022-07-24T12:04:42;31.00;65.80
25170;DHT22;13129;48.012;10.352;2022-07-24T12:07:10;31.20;65.00
25170;DHT22;13129;48.012;10.352;2022-07-24T12:14:51;31.80;62.90
25170;DHT22;13129;48.012;10.352;2022-07-24T12:17:17;31.50;63.60
25170;DHT22;13129;48.012;10.352;2022-07-24T12:19:51;31.40;63.20
25170;DHT22;13129;48.012;10.352;2022-07-24T12:22:18;31.20;63.90
25170;DHT22;13129;48.012;10.352;2022-07-24T12:24:44;31.40;64.40
25170;DHT22;13129;48.012;10.352;2022-07-24T12:27:10;31.50;63.50
25170;DHT22;13129;48.012;10.352;2022-07-24T12:29:42;31.40;60.40
25170;DHT22;13129;48.012;10.352;2022-07-24T12:32:16;31.50;59.90
25170;DHT22;13129;48.012;10.352;2022-07-24T12:34:47;31.40;61.50
25170;DHT22;13129;48.012;10.352;2022-07-24T12:37:21;30.90;60.10
25170;DHT22;13129;48.012;10.352;2022-07-24T12:39:47;30.20;62.30
25170;DHT22;13129;48.012;10.352;2022-07-24T12:42:13;29.70;63.80
25170;DHT22;13129;48.012;10.352;2022-07-24T12:44:40;29.70;64.50
25170;DHT22;13129;48.012;10.352;2022-07-24T12:47:08;29.50;65.30
25170;DHT22;13129;48.012;10.352;2022-07-24T12:49:44;29.50;64.50
25170;DHT22;13129;48.012;10.352;2022-07-24T12:52:24;29.30;64.70
25170;DHT22;13129;48.012;10.352;2022-07-24T12:54:51;29.50;64.50
25170;DHT22;13129;48.012;10.352;2022-07-24T12:57:20;29.60;64.50
25170;DHT22;13129;48.012;10.352;2022-07-24T12:59:49;29.80;63.80
25170;DHT22;13129;48.012;10.352;2022-07-24T13:02:20;30.10;62.80
25170;DHT22;13129;48.012;10.352;2022-07-24T13:04:51;30.00;61.30
25170;DHT22;13129;48.012;10.352;2022-07-24T13:07:22;30.30;60.40
25170;DHT22;13129;48.012;10.352;2022-07-24T13:09:48;30.50;59.30
25170;DHT22;13129;48.012;10.352;2022-07-24T13:12:14;30.50;58.30
25170;DHT22;13129;48.012;10.352;2022-07-24T13:14:40;30.60;57.70
25170;DHT22;13129;48.012;10.352;2022-07-24T13:17:17;30.50;57.30
25170;DHT22;13129;48.012;10.352;2022-07-24T13:19:45;30.50;57.60
25170;DHT22;13129;48.012;10.352;2022-07-24T13:22:11;30.50;58.30
25170;DHT22;13129;48.012;10.352;2022-07-24T13:24:37;30.60;58.70
25170;DHT22;13129;48.012;10.352;2022-07-24T13:27:04;30.50;59.20
25170;DHT22;13129;48.012;10.352;2022-07-24T13:29:30;30.40;59.60
25170;DHT22;13129;48.012;10.352;2022-07-24T13:31:56;30.40;59.80
25170;DHT22;13129;48.012;10.352;2022-07-24T13:34:23;30.40;59.90
25170;DHT22;13129;48.012;10.352;2022-07-24T13:36:49;30.60;60.40
25170;DHT22;13129;48.012;10.352;2022-07-24T13:39:15;30.60;60.60
25170;DHT22;13129;48.012;10.352;2022-07-24T13:41:41;30.40;59.30
25170;DHT22;13129;48.012;10.352;2022-07-24T13:44:08;30.30;58.90
25170;DHT22;13129;48.012;10.352;2022-07-24T13:46:34;30.10;58.40
25170;DHT22;13129;48.012;10.352;2022-07-24T13:49:01;30.10;58.90
25170;DHT22;13129;48.012;10.352;2022-07-24T13:51:27;30.00;59.20
25170;DHT22;13129;48.012;10.352;2022-07-24T13:53:54;30.10;59.70
25170;DHT22;13129;48.012;10.352;2022-07-24T13:56:20;30.00;59.10
25170;DHT22;13129;48.012;10.352;2022-07-24T13:58:48;30.00;59.00
25170;DHT22;13129;48.012;10.352;2022-07-24T14:01:14;30.00;59.50
25170;DHT22;13129;48.012;10.352;2022-07-24T14:03:42;29.90;58.80
25170;DHT22;13129;48.012;10.352;2022-07-24T14:06:09;29.70;58.70
25170;DHT22;13129;48.012;10.352;2022-07-24T14:08:36;29.60;59.00
25170;DHT22;13129;48.012;10.352;2022-07-24T14:11:02;29.40;58.40
25170;DHT22;13129;48.012;10.352;2022-07-24T14:13:28;29.40;58.60
25170;DHT22;13129;48.012;10.352;2022-07-24T14:15:53;29.40;58.30
25170;DHT22;13129;48.012;10.352;2022-07-24T14:18:20;29.40;58.60
25170;DHT22;13129;48.012;10.352;2022-07-24T14:20:46;29.30;58.30
25170;DHT22;13129;48.012;10.352;2022-07-24T14:23:12;29.30;58.70
25170;DHT22;13129;48.012;10.352;2022-07-24T14:25:39;29.20;59.00
25170;DHT22;13129;48.012;10.352;2022-07-24T14:28:07;29.10;59.30
25170;DHT22;13129;48.012;10.352;2022-07-24T14:30:33;29.10;59.60
25170;DHT22;13129;48.012;10.352;2022-07-24T14:32:58;29.10;59.20
25170;DHT22;13129;48.012;10.352;2022-07-24T14:35:24;29.00;59.50
25170;DHT22;13129;48.012;10.352;2022-07-24T14:37:50;28.90;59.50
25170;DHT22;13129;48.012;10.352;2022-07-24T14:40:16;28.90;59.40
25170;DHT22;13129;48.012;10.352;2022-07-24T14:42:42;28.90;59.80
25170;DHT22;13129;48.012;10.352;2022-07-24T14:45:07;28.70;58.80
25170;DHT22;13129;48.012;10.352;2022-07-24T14:47:33;28.70;58.80
25170;DHT22;13129;48.012;10.352;2022-07-24T14:49:59;28.70;58.50
25170;DHT22;13129;48.012;10.352;2022-07-24T14:52:25;28.80;59.30
25170;DHT22;13129;48.012;10.352;2022-07-24T14:54:51;28.80;59.80
25170;DHT22;13129;48.012;10.352;2022-07-24T14:57:17;28.70;60.30
25170;DHT22;13129;48.012;10.352;2022-07-24T14:59:43;28.70;60.50
25170;DHT22;13129;48.012;10.352;2022-07-24T15:02:09;28.70;61.60
25170;DHT22;13129;48.012;10.352;2022-07-24T15:04:35;28.70;61.50
25170;DHT22;13129;48.012;10.352;2022-07-24T15:07:02;28.70;60.70
25170;DHT22;13129;48.012;10.352;2022-07-24T15:09:30;28.70;60.70
25170;DHT22;13129;48.012;10.352;2022-07-24T15:11:57;28.70;60.80
25170;DHT22;13129;48.012;10.352;2022-07-24T15:14:22;28.70;61.00
25170;DHT22;13129;48.012;10.352;2022-07-24T15:16:48;28.60;61.70
25170;DHT22;13129;48.012;10.352;2022-07-24T15:19:14;28.60;61.90
25170;DHT22;13129;48.012;10.352;2022-07-24T15:21:40;28.60;62.40
25170;DHT22;13129;48.012;10.352;2022-07-24T15:24:06;28.50;61.10
25170;DHT22;13129;48.012;10.352;2022-07-24T15:26:33;28.50;61.80
25170;DHT22;13129;48.012;10.352;2022-07-24T15:28:58;28.40;61.40
25170;DHT22;13129;48.012;10.352;2022-07-24T15:31:24;28.40;61.50
25170;DHT22;13129;48.012;10.352;2022-07-24T15:33:50;28.20;63.20
25170;DHT22;13129;48.012;10.352;2022-07-24T15:36:16;28.20;63.50
25170;DHT22;13129;48.012;10.352;2022-07-24T15:38:42;28.20;63.50
25170;DHT22;13129;48.012;10.352;2022-07-24T15:41:08;28.20;64.00
25170;DHT22;13129;48.012;10.352;2022-07-24T15:43:35;28.20;63.80
25170;DHT22;13129;48.012;10.352;2022-07-24T15:46:01;28.20;62.90
25170;DHT22;13129;48.012;10.352;2022-07-24T15:48:27;28.20;62.90
25170;DHT22;13129;48.012;10.352;2022-07-24T15:50:53;28.10;63.60
25170;DHT22;13129;48.012;10.352;2022-07-24T15:53:19;28.00;64.50
25170;DHT22;13129;48.012;10.352;2022-07-24T15:55:44;27.90;64.50
25170;DHT22;13129;48.012;10.352;2022-07-24T15:58:10;27.90;63.80
25170;DHT22;13129;48.012;10.352;2022-07-24T16:00:36;27.90;63.20
25170;DHT22;13129;48.012;10.352;2022-07-24T16:03:02;27.80;63.30
25170;DHT22;13129;48.012;10.352;2022-07-24T16:05:28;27.80;63.50
25170;DHT22;13129;48.012;10.352;2022-07-24T16:07:55;27.80;63.90
25170;DHT22;13129;48.012;10.352;2022-07-24T16:10:21;27.80;62.90
25170;DHT22;13129;48.012;10.352;2022-07-24T16:12:48;27.80;62.60
25170;DHT22;13129;48.012;10.352;2022-07-24T16:15:14;27.80;62.80
25170;DHT22;13129;48.012;10.352;2022-07-24T16:17:41;27.80;63.00
25170;DHT22;13129;48.012;10.352;2022-07-24T16:20:08;27.80;63.20
25170;DHT22;13129;48.012;10.352;2022-07-24T16:22:35;27.80;63.90
25170;DHT22;13129;48.012;10.352;2022-07-24T16:25:02;27.70;63.60
25170;DHT22;13129;48.012;10.352;2022-07-24T16:27:28;27.70;64.10
25170;DHT22;13129;48.012;10.352;2022-07-24T16:29:54;27.60;64.30
25170;DHT22;13129;48.012;10.352;2022-07-24T16:32:20;27.60;64.70
25170;DHT22;13129;48.012;10.352;2022-07-24T16:34:46;27.60;65.10
25170;DHT22;13129;48.012;10.352;2022-07-24T16:37:12;27.60;65.60
25170;DHT22;13129;48.012;10.352;2022-07-24T16:39:38;27.60;65.20
25170;DHT22;13129;48.012;10.352;2022-07-24T16:42:04;27.60;64.90
25170;DHT22;13129;48.012;10.352;2022-07-24T16:44:30;27.60;64.60
25170;DHT22;13129;48.012;10.352;2022-07-24T16:46:56;27.60;64.80
25170;DHT22;13129;48.012;10.352;2022-07-24T16:49:22;27.60;65.00
25170;DHT22;13129;48.012;10.352;2022-07-24T16:51:48;27.60;65.00
25170;DHT22;13129;48.012;10.352;2022-07-24T16:54:14;27.60;65.60
25170;DHT22;13129;48.012;10.352;2022-07-24T16:56:40;27.60;64.80
25170;DHT22;13129;48.012;10.352;2022-07-24T16:59:06;27.50;64.30
25170;DHT22;13129;48.012;10.352;2022-07-24T17:01:32;27.50;64.20
25170;DHT22;13129;48.012;10.352;2022-07-24T17:04:01;27.40;65.00
25170;DHT22;13129;48.012;10.352;2022-07-24T17:06:26;27.40;64.00
25170;DHT22;13129;48.012;10.352;2022-07-24T17:08:52;27.30;64.60
25170;DHT22;13129;48.012;10.352;2022-07-24T17:11:18;27.30;64.80
25170;DHT22;13129;48.012;10.352;2022-07-24T17:13:44;27.20;65.10
25170;DHT22;13129;48.012;10.352;2022-07-24T17:16:09;27.20;65.40
25170;DHT22;13129;48.012;10.352;2022-07-24T17:18:36;27.20;65.20
25170;DHT22;13129;48.012;10.352;2022-07-24T17:21:01;27.20;65.70
25170;DHT22;13129;48.012;10.352;2022-07-24T17:23:27;27.10;66.20
25170;DHT22;13129;48.012;10.352;2022-07-24T17:25:53;27.10;66.50
25170;DHT22;13129;48.012;10.352;2022-07-24T17:28:19;27.10;67.30
25170;DHT22;13129;48.012;10.352;2022-07-24T17:30:44;27.10;68.20
25170;DHT22;13129;48.012;10.352;2022-07-24T17:33:11;27.10;68.30
25170;DHT22;13129;48.012;10.352;2022-07-24T17:35:37;27.00;68.20
25170;DHT22;13129;48.012;10.352;2022-07-24T17:38:03;27.00;68.10
25170;DHT22;13129;48.012;10.352;2022-07-24T17:40:29;27.00;67.60
25170;DHT22;13129;48.012;10.352;2022-07-24T17:42:55;26.90;68.00
25170;DHT22;13129;48.012;10.352;2022-07-24T17:45:21;26.90;68.30
25170;DHT22;13129;48.012;10.352;2022-07-24T17:47:47;26.80;67.70
25170;DHT22;13129;48.012;10.352;2022-07-24T17:50:14;26.80;68.50
25170;DHT22;13129;48.012;10.352;2022-07-24T17:52:40;26.70;70.30
25170;DHT22;13129;48.012;10.352;2022-07-24T17:55:07;26.60;71.20
25170;DHT22;13129;48.012;10.352;2022-07-24T17:57:33;26.60;71.80
25170;DHT22;13129;48.012;10.352;2022-07-24T18:00:00;26.50;72.20
25170;DHT22;13129;48.012;10.352;2022-07-24T18:02:50;26.40;72.60
25170;DHT22;13129;48.012;10.352;2022-07-24T18:05:16;26.30;73.20
25170;DHT22;13129;48.012;10.352;2022-07-24T18:07:42;26.20;73.50
25170;DHT22;13129;48.012;10.352;2022-07-24T18:10:11;26.10;74.00
25170;DHT22;13129;48.012;10.352;2022-07-24T18:12:38;26.00;74.60
25170;DHT22;13129;48.012;10.352;2022-07-24T18:15:04;25.90;76.30
25170;DHT22;13129;48.012;10.352;2022-07-24T18:17:30;25.70;76.60
25170;DHT22;13129;48.012;10.352;2022-07-24T18:19:56;25.60;77.10
25170;DHT22;13129;48.012;10.352;2022-07-24T18:22:21;25.50;77.70
25170;DHT22;13129;48.012;10.352;2022-07-24T18:24:47;25.40;78.20
25170;DHT22;13129;48.012;10.352;2022-07-24T18:27:13;25.30;79.00
25170;DHT22;13129;48.012;10.352;2022-07-24T18:29:39;25.20;79.70
25170;DHT22;13129;48.012;10.352;2022-07-24T18:32:05;25.10;80.10
25170;DHT22;13129;48.012;10.352;2022-07-24T18:34:30;25.00;80.70
25170;DHT22;13129;48.012;10.352;2022-07-24T18:36:56;24.80;81.70
25170;DHT22;13129;48.012;10.352;2022-07-24T18:39:21;24.70;83.40
25170;DHT22;13129;48.012;10.352;2022-07-24T18:41:47;24.60;85.80
25170;DHT22;13129;48.012;10.352;2022-07-24T18:44:13;24.50;88.70
25170;DHT22;13129;48.012;10.352;2022-07-24T18:46:38;24.30;90.80
25170;DHT22;13129;48.012;10.352;2022-07-24T18:49:04;24.20;92.30
25170;DHT22;13129;48.012;10.352;2022-07-24T18:51:30;24.10;94.20
25170;DHT22;13129;48.012;10.352;2022-07-24T18:53:55;24.00;95.00
25170;DHT22;13129;48.012;10.352;2022-07-24T18:56:24;23.90;96.90
25170;DHT22;13129;48.012;10.352;2022-07-24T18:58:50;23.80;99.10
25170;DHT22;13129;48.012;10.352;2022-07-24T19:01:16;23.70;99.90
25170;DHT22;13129;48.012;10.352;2022-07-24T19:03:42;23.50;99.90
25170;DHT22;13129;48.012;10.352;2022-07-24T19:06:08;23.40;99.90
25170;DHT22;13129;48.012;10.352;2022-07-24T19:08:34;23.30;99.90
25170;DHT22;13129;48.012;10.352;2022-07-24T19:11:00;23.30;99.90
25170;DHT22;13129;48.012;10.352;2022-07-24T19:13:25;23.20;99.90
25170;DHT22;13129;48.012;10.352;2022-07-24T19:15:51;23.00;99.90
25170;DHT22;13129;48.012;10.352;2022-07-24T19:18:16;22.90;99.90
25170;DHT22;13129;48.012;10.352;2022-07-24T19:20:42;22.90;99.90